Time;durP1;ratioP1;P1;durP2;ratioP2;P2;SDS_P1;SDS_P2;PMS_P1;PMS_P2;Temp;Humidity;BMP_temperature;BMP_pressure;BME280_temperature;BME280_humidity;BME280_pressure;Samples;Min_cycle;Max_cycle;Signal;HPM_P1;HPM_P2
2023/10/24 00:02:21;;;;;;;7.70;4.05;;;;;;;12.43;100.00;99052.06;6072653;23;20331;-83
2023/10/24 00:04:48;;;;;;;6.30;3.38;;;;;;;12.44;100.00;99039.56;6096134;23;20018;-84
2023/10/24 00:07:15;;;;;;;7.53;3.75;;;;;;;12.45;100.00;99035.91;6097133;23;20021;-83
2023/10/24 00:09:42;;;;;;;7.70;3.67;;;;;;;12.45;100.00;99025.28;6120623;23;20029;-83
2023/10/24 00:12:08;;;;;;;7.45;3.67;;;;;;;12.46;100.00;99033.06;6072840;23;20096;-84
2023/10/24 00:14:35;;;;;;;5.25;3.80;;;;;;;12.48;100.00;99038.25;6097122;23;20080;-84
2023/10/24 00:17:02;;;;;;;5.38;3.58;;;;;;;12.46;100.00;99045.56;6120323;23;20028;-84
2023/10/24 00:19:29;;;;;;;7.50;4.00;;;;;;;12.45;100.00;99039.41;6121137;23;20486;-84
2023/10/24 00:21:56;;;;;;;5.85;3.90;;;;;;;12.44;100.00;99045.75;6095997;23;20104;-83
2023/10/24 00:24:23;;;;;;;5.40;3.42;;;;;;;12.43;100.00;99017.44;6071989;23;20101;-83
2023/10/24 00:26:49;;;;;;;5.15;3.45;;;;;;;12.43;100.00;99024.59;6072207;23;20072;-84
2023/10/24 00:29:16;;;;;;;7.00;3.50;;;;;;;12.44;100.00;99032.44;6096481;23;20028;-84
2023/10/24 00:31:43;;;;;;;8.68;4.05;;;;;;;12.44;100.00;99058.19;6071959;23;20112;-85
2023/10/24 00:34:12;;;;;;;6.65;3.92;;;;;;;12.44;100.00;99050.22;6072896;23;20446;-83
2023/10/24 00:36:41;;;;;;;6.82;3.70;;;;;;;12.45;100.00;99043.91;6071690;23;20025;-83
2023/10/24 00:39:08;;;;;;;11.23;3.70;;;;;;;12.44;100.00;99028.91;6072392;23;20080;-84
2023/10/24 00:41:35;;;;;;;8.27;4.30;;;;;;;12.44;100.00;99036.91;6096469;23;20078;-84
2023/10/24 00:44:02;;;;;;;9.52;3.60;;;;;;;12.45;100.00;99034.09;6146656;23;20013;-85
2023/10/24 00:46:29;;;;;;;10.35;3.90;;;;;;;12.44;100.00;99036.91;6095682;23;20087;-83
2023/10/24 00:48:57;;;;;;;5.80;3.50;;;;;;;12.45;100.00;99018.09;6095540;23;20030;-84
2023/10/24 00:51:24;;;;;;;8.15;3.60;;;;;;;12.44;100.00;99016.47;6072692;23;20026;-83
2023/10/24 00:53:51;;;;;;;6.90;3.45;;;;;;;12.46;100.00;99021.59;6095391;23;20025;-83
2023/10/24 00:56:19;;;;;;;8.57;3.30;;;;;;;12.45;100.00;99019.94;6096824;23;20097;-84
2023/10/24 00:58:48;;;;;;;7.00;3.85;;;;;;;12.43;100.00;99019.28;6120517;23;20692;-84
2023/10/24 01:01:15;;;;;;;6.78;3.72;;;;;;;12.42;100.00;99015.78;6073209;23;20026;-84
2023/10/24 01:03:43;;;;;;;7.57;3.28;;;;;;;12.44;100.00;99027.09;6071240;23;20108;-84
2023/10/24 01:06:10;;;;;;;10.88;4.78;;;;;;;12.45;100.00;99039.41;6095909;23;20037;-88
2023/10/24 01:08:37;;;;;;;5.05;3.47;;;;;;;12.45;100.00;99044.72;6096338;23;20480;-84
2023/10/24 01:11:06;;;;;;;9.20;4.05;;;;;;;12.45;100.00;99041.25;6049145;23;20450;-84
2023/10/24 01:13:34;;;;;;;6.43;3.80;;;;;;;12.44;100.00;99034.25;6057184;23;20029;-84
2023/10/24 01:16:01;;;;;;;8.38;3.83;;;;;;;12.42;100.00;99015.78;6105043;23;20021;-83
2023/10/24 01:18:28;;;;;;;11.15;4.55;;;;;;;12.42;100.00;99010.47;6104727;23;20081;-84
2023/10/24 01:20:55;;;;;;;7.88;3.88;;;;;;;12.42;100.00;99013.13;6095441;23;20025;-84
2023/10/24 01:23:22;;;;;;;6.35;4.13;;;;;;;12.41;100.00;99005.28;6106731;23;20024;-84
2023/10/24 01:25:51;;;;;;;7.05;3.90;;;;;;;12.39;100.00;99008.13;6072381;23;20022;-84
2023/10/24 01:28:18;;;;;;;5.32;4.07;;;;;;;12.40;100.00;99014.28;6095066;23;20022;-84
2023/10/24 01:30:45;;;;;;;6.07;4.13;;;;;;;12.38;100.00;99003.78;6071763;23;20018;-84
2023/10/24 01:33:12;;;;;;;20.77;4.82;;;;;;;12.40;100.00;99003.63;6072231;23;20018;-84
2023/10/24 01:35:39;;;;;;;7.60;3.95;;;;;;;12.39;100.00;98997.50;6070446;23;20068;-84
2023/10/24 01:38:06;;;;;;;7.18;4.03;;;;;;;12.38;100.00;98996.63;6119741;23;20395;-86
2023/10/24 01:40:32;;;;;;;7.47;3.63;;;;;;;12.39;100.00;99005.47;6095698;23;20013;-84
2023/10/24 01:42:59;;;;;;;7.85;3.92;;;;;;;12.36;100.00;99009.31;6095453;23;20339;-84
2023/10/24 01:45:26;;;;;;;7.25;4.00;;;;;;;12.37;100.00;99007.47;6096352;23;20086;-84
2023/10/24 01:47:53;;;;;;;7.45;3.58;;;;;;;12.38;100.00;99004.63;6094121;23;20022;-84
2023/10/24 01:50:20;;;;;;;9.52;4.40;;;;;;;12.38;100.00;99006.47;6119370;23;20100;-85
2023/10/24 01:52:47;;;;;;;4.90;3.42;;;;;;;12.39;100.00;99005.47;6095618;23;20013;-84
2023/10/24 01:55:14;;;;;;;12.32;4.72;;;;;;;12.39;100.00;99002.81;6120666;23;20032;-84
2023/10/24 01:57:40;;;;;;;9.82;4.15;;;;;;;12.40;100.00;99003.63;6070235;23;20029;-85
2023/10/24 02:00:08;;;;;;;10.82;3.83;;;;;;;12.37;100.00;98988.84;6096405;23;20021;-84
2023/10/24 02:02:43;;;;;;;7.22;4.63;;;;;;;12.37;100.00;98996.81;6118704;23;20017;-84
2023/10/24 02:05:12;;;;;;;5.65;4.10;;;;;;;12.37;100.00;98988.84;6072515;23;20033;-84
2023/10/24 02:07:39;;;;;;;6.65;4.28;;;;;;;12.36;100.00;98981.81;6091913;23;20057;-84
2023/10/24 02:10:06;;;;;;;4.85;4.35;;;;;;;12.36;100.00;98974.69;6095339;23;20480;-84
2023/10/24 02:12:34;;;;;;;12.13;4.82;;;;;;;12.38;100.00;98974.50;6071839;23;20025;-84
2023/10/24 02:15:02;;;;;;;6.75;4.60;;;;;;;12.35;100.00;98964.19;6096142;23;20037;-84
2023/10/24 02:17:29;;;;;;;5.90;4.47;;;;;;;12.38;100.00;98961.19;6095776;23;20466;-84
2023/10/24 02:19:56;;;;;;;8.48;4.35;;;;;;;12.38;100.00;98964.69;6095882;23;20067;-85
2023/10/24 02:22:22;;;;;;;9.50;6.05;;;;;;;12.36;100.00;98977.34;6072322;23;20075;-84
2023/10/24 02:24:49;;;;;;;5.80;4.13;;;;;;;12.35;100.00;98981.00;6070535;23;20025;-84
2023/10/24 02:27:16;;;;;;;9.02;4.85;;;;;;;12.35;100.00;98993.50;6095169;23;20033;-84
2023/10/24 02:29:43;;;;;;;6.82;4.20;;;;;;;12.36;100.00;99008.44;6096038;23;20017;-84
2023/10/24 02:32:10;;;;;;;9.35;4.53;;;;;;;12.37;100.00;99020.78;6095748;23;20045;-84
2023/10/24 02:34:37;;;;;;;8.95;4.40;;;;;;;12.34;100.00;99013.97;6095777;23;20028;-84
2023/10/24 02:37:04;;;;;;;7.72;4.30;;;;;;;12.35;100.00;99018.28;6119716;23;20040;-84
2023/10/24 02:39:31;;;;;;;7.60;4.32;;;;;;;12.34;100.00;99024.59;6095350;23;20049;-84
2023/10/24 02:41:57;;;;;;;7.85;4.55;;;;;;;12.37;100.00;99034.09;6071329;23;20391;-84
2023/10/24 02:44:25;;;;;;;7.32;4.68;;;;;;;12.35;100.00;99036.91;6095850;23;20069;-84
2023/10/24 02:46:52;;;;;;;7.88;4.82;;;;;;;12.35;100.00;99022.78;6071478;23;20018;-83
2023/10/24 02:49:19;;;;;;;6.55;4.43;;;;;;;12.37;100.00;99028.78;6120132;23;20025;-83
2023/10/24 02:51:45;;;;;;;8.05;4.93;;;;;;;12.36;100.00;99027.09;6119841;23;20044;-83
2023/10/24 02:54:12;;;;;;;5.05;4.35;;;;;;;12.35;100.00;99002.31;6071747;23;20442;-84
2023/10/24 02:56:39;;;;;;;6.03;4.90;;;;;;;12.37;100.00;98994.16;6071470;23;20585;-84
2023/10/24 02:59:06;;;;;;;7.03;4.85;;;;;;;12.35;100.00;98966.88;6095063;23;20446;-83
2023/10/24 03:01:33;;;;;;;8.40;5.07;;;;;;;12.34;100.00;98971.38;6119463;23;20033;-85
2023/10/24 03:04:00;;;;;;;7.55;5.40;;;;;;;12.30;100.00;98996.66;6118917;23;20084;-83
2023/10/24 03:06:27;;;;;;;5.55;4.45;;;;;;;12.29;100.00;99008.31;6094112;23;20080;-83
2023/10/24 03:08:54;;;;;;;10.07;5.25;;;;;;;12.26;100.00;99005.13;6118778;23;20962;-83
2023/10/24 03:11:24;;;;;;;10.05;6.20;;;;;;;12.25;100.00;99019.44;6118957;23;20022;-83
2023/10/24 03:13:52;;;;;;;10.68;5.60;;;;;;;12.28;100.00;99027.91;6094248;23;20037;-83
2023/10/24 03:16:19;;;;;;;8.48;4.68;;;;;;;12.30;100.00;99039.25;6071250;23;20032;-83
2023/10/24 03:18:47;;;;;;;16.80;5.72;;;;;;;12.31;100.00;99054.22;6094719;23;20521;-83
2023/10/24 03:21:16;;;;;;;12.38;5.53;;;;;;;12.31;100.00;99051.56;6095124;23;20096;-83
2023/10/24 03:23:44;;;;;;;45.17;20.17;;;;;;;12.34;100.00;99047.75;6118903;23;20080;-83
2023/10/24 03:26:11;;;;;;;39.58;20.00;;;;;;;12.36;100.00;99043.91;6090441;23;20700;-83
2023/10/24 03:28:40;;;;;;;36.55;17.77;;;;;;;12.35;100.00;99044.91;6119143;23;20045;-83
2023/10/24 03:31:08;;;;;;;21.10;14.60;;;;;;;12.37;100.00;99052.72;6119857;23;20534;-83
2023/10/24 03:33:36;;;;;;;14.15;11.45;;;;;;;12.38;100.00;99060.53;6049485;23;20021;-83
2023/10/24 03:36:03;;;;;;;11.60;8.52;;;;;;;12.39;100.00;99064.06;6119369;23;20017;-83
2023/10/24 03:38:30;;;;;;;12.15;7.03;;;;;;;12.37;100.00;99058.06;6096131;23;20520;-85
2023/10/24 03:40:57;;;;;;;12.73;5.95;;;;;;;12.38;100.00;99059.69;6121733;23;20032;-83
2023/10/24 03:43:24;;;;;;;10.23;5.85;;;;;;;12.37;100.00;99042.91;6096114;23;20097;-83
2023/10/24 03:45:51;;;;;;;8.52;5.90;;;;;;;12.38;100.00;99041.91;6095455;23;20032;-86
2023/10/24 03:48:18;;;;;;;9.82;6.05;;;;;;;12.38;100.00;99020.59;6120841;23;20092;-83
2023/10/24 03:50:45;;;;;;;13.07;5.78;;;;;;;12.38;100.00;99012.59;6095546;23;20025;-83
2023/10/24 03:53:11;;;;;;;9.85;6.85;;;;;;;12.41;100.00;98994.66;6072026;23;20100;-83
2023/10/24 03:55:38;;;;;;;11.02;6.80;;;;;;;12.39;100.00;98994.81;6095870;23;20017;-83
2023/10/24 03:58:05;;;;;;;11.20;5.95;;;;;;;12.35;100.00;98983.66;6120309;23;20104;-83
2023/10/24 04:00:32;;;;;;;11.75;6.53;;;;;;;12.36;100.00;98964.03;6096988;23;20045;-83
2023/10/24 04:03:00;;;;;;;14.00;6.18;;;;;;;12.34;100.00;98978.53;6093705;23;20096;-83
2023/10/24 04:05:27;;;;;;;12.73;7.00;;;;;;;12.33;100.00;99020.25;6095061;23;20049;-83
2023/10/24 04:07:53;;;;;;;15.23;7.35;;;;;;;12.33;100.00;99028.25;6095786;23;20009;-83
2023/10/24 04:10:20;;;;;;;11.48;6.88;;;;;;;12.36;100.00;99029.75;6096217;23;20021;-83
2023/10/24 04:12:47;;;;;;;11.45;6.40;;;;;;;12.36;100.00;99030.59;6070649;23;20446;-84
2023/10/24 04:15:14;;;;;;;15.45;6.75;;;;;;;12.36;100.00;99025.28;6096716;23;20048;-83
2023/10/24 04:17:40;;;;;;;11.25;6.32;;;;;;;12.36;100.00;99022.63;6089918;23;20060;-83
2023/10/24 04:20:08;;;;;;;9.88;6.00;;;;;;;12.36;100.00;99009.31;6115053;23;20767;-86
2023/10/24 04:22:35;;;;;;;9.70;5.90;;;;;;;12.35;100.00;99012.94;6096226;23;20446;-85
2023/10/24 04:25:03;;;;;;;12.63;6.75;;;;;;;12.37;100.00;99005.63;6095193;23;20022;-84
2023/10/24 04:27:30;;;;;;;10.13;6.15;;;;;;;12.38;100.00;98996.63;6094185;23;20056;-84
2023/10/24 04:29:58;;;;;;;11.02;6.68;;;;;;;12.38;100.00;98987.81;6095689;23;20021;-85
2023/10/24 04:32:25;;;;;;;12.82;7.38;;;;;;;12.37;100.00;98996.81;6095343;23;20029;-84
2023/10/24 04:34:52;;;;;;;8.75;6.28;;;;;;;12.37;100.00;99000.31;6094332;23;20020;-85
2023/10/24 04:37:19;;;;;;;12.80;6.22;;;;;;;12.37;100.00;98996.81;6118414;23;20029;-84
2023/10/24 04:39:46;;;;;;;10.73;5.78;;;;;;;12.37;100.00;98987.00;6071414;23;20076;-84
2023/10/24 04:42:13;;;;;;;9.38;6.35;;;;;;;12.38;100.00;98985.97;6095405;23;20053;-86
2023/10/24 04:44:40;;;;;;;14.00;7.63;;;;;;;12.36;100.00;98974.69;6092862;23;20060;-85
2023/10/24 04:47:07;;;;;;;14.52;7.20;;;;;;;12.33;100.00;98960.88;6119311;23;20458;-84
2023/10/24 04:49:37;;;;;;;9.77;6.65;;;;;;;12.34;100.00;98951.91;6095818;23;20398;-85
2023/10/24 04:52:04;;;;;;;13.43;6.80;;;;;;;12.32;100.00;98920.13;6095502;23;20025;-84
2023/10/24 04:54:32;;;;;;;14.32;7.18;;;;;;;12.30;100.00;98915.97;6093925;23;20032;-84
2023/10/24 04:57:00;;;;;;;16.05;7.18;;;;;;;12.29;100.00;98911.66;6094858;23;20501;-86
2023/10/24 04:59:27;;;;;;;12.70;7.65;;;;;;;12.27;100.00;98903.81;6071218;23;20334;-86
2023/10/24 05:01:54;;;;;;;9.68;6.97;;;;;;;12.27;100.00;98909.16;6070650;23;20017;-84
2023/10/24 05:04:21;;;;;;;14.98;8.38;;;;;;;12.26;100.00;98910.16;6070066;23;20022;-84
2023/10/24 05:06:48;;;;;;;10.00;6.97;;;;;;;12.26;100.00;98907.50;6070977;23;20018;-85
2023/10/24 05:09:16;;;;;;;11.48;6.75;;;;;;;12.29;100.00;98907.16;6095577;23;20044;-84
2023/10/24 05:11:43;;;;;;;11.70;7.10;;;;;;;12.31;100.00;98918.47;6094161;23;20025;-84
2023/10/24 05:14:10;;;;;;;17.10;6.95;;;;;;;12.33;100.00;98912.97;6094256;23;20025;-83
2023/10/24 05:16:38;;;;;;;13.05;7.95;;;;;;;12.33;100.00;98907.63;6095096;23;20032;-85
2023/10/24 05:19:05;;;;;;;11.95;7.88;;;;;;;12.34;100.00;98914.63;6070954;23;20093;-84
2023/10/24 05:21:32;;;;;;;11.40;6.93;;;;;;;12.34;100.00;98925.28;6093344;23;20037;-86
2023/10/24 05:23:59;;;;;;;12.85;7.90;;;;;;;12.34;100.00;98920.78;6119338;23;20470;-83
2023/10/24 05:26:26;;;;;;;10.93;7.13;;;;;;;12.35;100.00;98901.13;6093263;23;20021;-86
2023/10/24 05:28:53;;;;;;;11.60;7.70;;;;;;;12.36;100.00;98913.47;6071107;23;20021;-86
2023/10/24 05:31:21;;;;;;;11.98;6.95;;;;;;;12.35;100.00;98877.19;6119973;23;20013;-86
2023/10/24 05:33:49;;;;;;;11.85;7.22;;;;;;;12.35;100.00;98868.38;6071069;23;20027;-86
2023/10/24 05:36:20;;;;;;;13.63;7.43;;;;;;;12.35;100.00;98852.41;6073340;23;20026;-85
2023/10/24 05:38:46;;;;;;;15.75;7.13;;;;;;;12.35;100.00;98844.41;6121063;23;20089;-85
2023/10/24 05:41:13;;;;;;;11.93;7.45;;;;;;;12.36;100.00;98854.91;6097729;23;20097;-85
2023/10/24 05:43:40;;;;;;;13.98;7.90;;;;;;;12.38;100.00;98860.84;6121470;23;20060;-85
2023/10/24 05:46:07;;;;;;;10.18;7.75;;;;;;;12.37;100.00;98869.84;6097318;23;20519;-85
2023/10/24 05:48:35;;;;;;;12.35;7.40;;;;;;;12.36;100.00;98868.22;6097878;23;20041;-85
2023/10/24 05:51:02;;;;;;;11.75;8.05;;;;;;;12.36;100.00;98868.22;6049277;23;20028;-86
2023/10/24 05:53:29;;;;;;;12.75;8.60;;;;;;;12.37;100.00;98864.53;6072357;23;20025;-86
2023/10/24 05:55:56;;;;;;;10.90;8.48;;;;;;;12.39;100.00;98867.03;6121142;23;20025;-86
2023/10/24 05:58:23;;;;;;;10.50;7.95;;;;;;;12.41;100.00;98869.50;6121178;23;20022;-86
2023/10/24 06:00:51;;;;;;;11.55;8.70;;;;;;;12.37;100.00;98869.84;6120442;23;20431;-87
2023/10/24 06:03:19;;;;;;;11.95;7.93;;;;;;;12.41;100.00;98877.50;6096483;23;20021;-86
2023/10/24 06:05:46;;;;;;;10.05;8.48;;;;;;;12.40;100.00;98873.19;6094232;23;20060;-87
2023/10/24 06:08:13;;;;;;;11.35;7.53;;;;;;;12.40;100.00;98875.84;6096104;23;20028;-85
2023/10/24 06:10:40;;;;;;;12.52;7.85;;;;;;;12.40;100.00;98881.16;6117913;23;20021;-87
2023/10/24 06:13:09;;;;;;;10.93;8.02;;;;;;;12.40;100.00;98891.81;6096141;23;20021;-87
2023/10/24 06:15:35;;;;;;;12.20;8.90;;;;;;;12.40;100.00;98894.47;6119623;23;20033;-86
2023/10/24 06:18:03;;;;;;;15.38;9.25;;;;;;;12.40;100.00;98897.16;6096003;23;20048;-87
2023/10/24 06:20:30;;;;;;;12.52;8.20;;;;;;;12.41;100.00;98896.13;6121243;23;20025;-86
2023/10/24 06:22:57;;;;;;;13.45;8.25;;;;;;;12.40;100.00;98897.97;6120749;23;20369;-86
2023/10/24 06:25:24;;;;;;;10.90;8.18;;;;;;;12.41;100.00;98901.47;6120326;23;20060;-87
2023/10/24 06:27:51;;;;;;;12.77;8.23;;;;;;;12.43;100.00;98918.09;6096459;23;20021;-87
2023/10/24 06:30:18;;;;;;;12.20;8.20;;;;;;;12.43;100.00;98908.28;6144948;23;20343;-87
2023/10/24 06:32:44;;;;;;;14.15;9.00;;;;;;;12.41;100.00;98899.63;6095569;23;20084;-86
2023/10/24 06:35:15;;;;;;;18.73;9.23;;;;;;;12.43;100.00;98900.28;6120985;23;20022;-88
2023/10/24 06:37:42;;;;;;;15.45;8.38;;;;;;;12.43;100.00;98902.13;6117912;23;20417;-86
2023/10/24 06:40:10;;;;;;;15.52;8.52;;;;;;;12.44;100.00;98912.63;6096563;23;20017;-86
2023/10/24 06:42:37;;;;;;;16.15;9.23;;;;;;;12.44;100.00;98909.94;6073156;23;20445;-86
2023/10/24 06:45:04;;;;;;;13.15;8.63;;;;;;;12.45;100.00;98913.44;6121332;23;20045;-86
2023/10/24 06:47:31;;;;;;;22.63;10.02;;;;;;;12.45;100.00;98924.91;6120995;23;20049;-87
2023/10/24 06:49:58;;;;;;;18.75;10.57;;;;;;;12.45;100.00;98924.91;6096357;23;20080;-86
2023/10/24 06:52:25;;;;;;;16.63;11.60;;;;;;;12.47;100.00;98925.59;6096657;23;20017;-87
2023/10/24 06:54:52;;;;;;;15.07;10.30;;;;;;;12.47;100.00;98925.59;6072309;23;20025;-87
2023/10/24 06:57:18;;;;;;;25.83;11.80;;;;;;;12.49;100.00;98930.72;6092153;23;20025;-86
2023/10/24 06:59:45;;;;;;;16.13;10.60;;;;;;;12.48;100.00;98939.72;6093559;23;20097;-87
2023/10/24 07:02:12;;;;;;;16.55;10.23;;;;;;;12.49;100.00;98941.38;6093562;23;20017;-87
2023/10/24 07:04:39;;;;;;;13.35;9.73;;;;;;;12.48;100.00;98948.53;6121190;23;20025;-86
2023/10/24 07:07:06;;;;;;;15.90;9.90;;;;;;;12.48;100.00;98945.03;6109378;23;20080;-86
2023/10/24 07:09:33;;;;;;;16.23;10.40;;;;;;;12.50;100.00;98951.88;6096800;23;20101;-86
2023/10/24 07:12:00;;;;;;;14.35;9.35;;;;;;;12.51;100.00;98947.34;6145592;23;20027;-86
2023/10/24 07:14:26;;;;;;;14.38;10.85;;;;;;;12.50;100.00;98951.03;6096350;23;20022;-85
2023/10/24 07:16:53;;;;;;;14.82;9.70;;;;;;;12.52;100.00;98952.53;6096906;23;20029;-86
2023/10/24 07:19:21;;;;;;;15.43;8.77;;;;;;;12.52;100.00;98943.72;6097526;23;20018;-84
2023/10/24 07:21:47;;;;;;;15.02;11.05;;;;;;;12.52;100.00;98936.56;6120417;23;20048;-86
2023/10/24 07:24:14;;;;;;;14.82;9.57;;;;;;;12.54;100.00;98931.03;6084948;23;20039;-85
2023/10/24 07:26:41;;;;;;;14.63;9.68;;;;;;;12.55;100.00;98927.38;6145083;23;20041;-85
2023/10/24 07:29:08;;;;;;;14.43;9.02;;;;;;;12.55;100.00;98922.88;6118781;23;20022;-85
2023/10/24 07:31:37;;;;;;;17.92;9.90;;;;;;;12.56;100.00;98921.88;6096386;23;20026;-85
2023/10/24 07:34:04;;;;;;;20.20;9.73;;;;;;;12.58;100.00;98927.03;6144505;23;20013;-85
2023/10/24 07:36:31;;;;;;;15.50;8.50;;;;;;;12.59;100.00;98923.38;6119283;23;20025;-86
2023/10/24 07:39:00;;;;;;;16.63;9.13;;;;;;;12.60;100.00;98925.03;6120213;23;20021;-84
2023/10/24 07:41:27;;;;;;;18.30;10.07;;;;;;;12.62;100.00;98924.84;6119418;23;20082;-85
2023/10/24 07:43:54;;;;;;;18.27;12.10;;;;;;;12.60;100.00;98920.53;6143598;23;20033;-85
2023/10/24 07:46:23;;;;;;;20.42;11.68;;;;;;;12.60;100.00;98925.03;6071704;23;20025;-86
2023/10/24 07:48:52;;;;;;;15.32;11.20;;;;;;;12.62;100.00;98925.72;6068419;23;20030;-85
2023/10/24 07:51:19;;;;;;;14.63;10.93;;;;;;;12.64;100.00;98929.00;6119380;23;20033;-86
2023/10/24 07:53:46;;;;;;;15.20;10.18;;;;;;;12.64;100.00;98929.00;6071611;23;20017;-85
2023/10/24 07:56:13;;;;;;;20.50;13.95;;;;;;;12.65;100.00;98922.69;6145514;23;20076;-86
2023/10/24 07:58:40;;;;;;;22.20;13.75;;;;;;;12.64;100.00;98920.19;6097866;23;20019;-86
2023/10/24 08:01:07;;;;;;;34.00;16.80;;;;;;;12.65;100.00;98928.03;6119177;23;20045;-85
2023/10/24 08:03:34;;;;;;;29.50;16.88;;;;;;;12.68;100.00;98929.50;6095075;23;20080;-86
2023/10/24 08:06:01;;;;;;;33.42;18.13;;;;;;;12.67;100.00;98923.38;6094667;23;20718;-85
2023/10/24 08:08:28;;;;;;;33.58;18.55;;;;;;;12.68;100.00;98921.53;6071801;23;20326;-84
2023/10/24 08:10:54;;;;;;;28.08;15.43;;;;;;;12.69;100.00;98917.84;6095337;23;20022;-84
2023/10/24 08:13:21;;;;;;;17.73;11.43;;;;;;;12.68;100.00;98914.38;6144505;23;20025;-85
2023/10/24 08:15:58;;;;;;;18.10;10.00;;;;;;;12.67;100.00;98911.84;6093502;23;20025;-85
2023/10/24 08:18:25;;;;;;;18.92;10.55;;;;;;;12.69;100.00;98910.69;6142351;23;20048;-85
2023/10/24 08:20:54;;;;;;;13.75;11.27;;;;;;;12.70;100.00;98916.88;6118048;23;20410;-85
2023/10/24 08:23:20;;;;;;;19.73;11.43;;;;;;;12.69;100.00;98918.66;6120684;23;20345;-84
2023/10/24 08:25:47;;;;;;;21.63;10.70;;;;;;;12.70;100.00;98916.88;6144313;23;20034;-84
2023/10/24 08:28:14;;;;;;;15.25;9.73;;;;;;;12.71;100.00;98923.84;6122020;23;20346;-85
2023/10/24 08:30:41;;;;;;;14.48;10.60;;;;;;;12.70;100.00;98928.34;6094866;23;20029;-84
2023/10/24 08:33:08;;;;;;;16.17;11.57;;;;;;;12.71;100.00;98939.81;6121076;23;20060;-85
2023/10/24 08:35:35;;;;;;;14.20;9.18;;;;;;;12.72;100.00;98944.13;6146180;23;20064;-85
2023/10/24 08:38:03;;;;;;;15.10;9.48;;;;;;;12.71;100.00;98934.50;6121263;23;20082;-85
2023/10/24 08:40:30;;;;;;;16.75;10.25;;;;;;;12.71;100.00;98930.00;6096309;23;20022;-85
2023/10/24 08:42:57;;;;;;;17.25;10.00;;;;;;;12.72;100.00;98928.16;6120752;23;20462;-84
2023/10/24 08:45:25;;;;;;;20.63;10.93;;;;;;;12.71;100.00;98927.31;6096911;23;20442;-86
2023/10/24 08:47:53;;;;;;;13.32;9.07;;;;;;;12.71;100.00;98934.50;6096509;23;20785;-85
2023/10/24 08:50:20;;;;;;;16.27;9.73;;;;;;;12.71;100.00;98930.00;6097755;23;20445;-85
2023/10/24 08:52:47;;;;;;;16.45;10.35;;;;;;;12.72;100.00;98929.00;6144793;23;20096;-85
2023/10/24 08:55:14;;;;;;;14.10;9.48;;;;;;;12.73;100.00;98927.16;6120656;23;20037;-85
2023/10/24 08:57:42;;;;;;;15.48;10.18;;;;;;;12.74;100.00;98940.28;6122712;23;20072;-86
2023/10/24 09:00:13;;;;;;;16.10;10.00;;;;;;;12.76;100.00;98932.16;6097430;23;20020;-86
2023/10/24 09:02:41;;;;;;;16.65;10.55;;;;;;;12.75;100.00;98925.16;6122067;23;20480;-85
2023/10/24 09:05:09;;;;;;;16.80;10.40;;;;;;;12.75;100.00;98923.34;6144100;23;20044;-85
2023/10/24 09:07:36;;;;;;;16.88;10.00;;;;;;;12.76;100.00;98919.66;6119995;23;20028;-85
2023/10/24 09:10:05;;;;;;;18.80;11.20;;;;;;;12.77;100.00;98918.66;6094550;23;20036;-85
2023/10/24 09:12:33;;;;;;;20.92;11.90;;;;;;;12.77;100.00;98916.00;6095275;23;20060;-84
2023/10/24 09:15:00;;;;;;;16.52;11.15;;;;;;;12.77;100.00;98913.34;6070377;23;20406;-85
2023/10/24 09:17:30;;;;;;;17.33;11.55;;;;;;;12.78;100.00;98904.34;6143092;23;20030;-83
2023/10/24 09:19:58;;;;;;;21.27;12.57;;;;;;;12.78;100.00;98898.19;6121288;23;20021;-84
2023/10/24 09:22:29;;;;;;;21.40;12.55;;;;;;;12.78;100.00;98901.66;6143371;23;20021;-86
2023/10/24 09:24:58;;;;;;;24.13;12.55;;;;;;;12.80;100.00;98894.34;6143845;23;20390;-84
2023/10/24 09:27:25;;;;;;;25.98;12.88;;;;;;;12.81;100.00;98913.81;6094808;23;20060;-85
2023/10/24 09:29:51;;;;;;;17.17;11.15;;;;;;;12.79;100.00;98913.97;6119915;23;20022;-84
2023/10/24 09:32:20;;;;;;;21.10;12.75;;;;;;;12.80;100.00;98910.31;6121498;23;20442;-84
2023/10/24 09:34:47;;;;;;;20.38;12.80;;;;;;;12.81;100.00;98913.81;6145467;23;20032;-84
2023/10/24 09:37:15;;;;;;;17.48;10.77;;;;;;;12.81;100.00;98908.47;6146189;23;20112;-84
2023/10/24 09:40:01;;;;;;;20.00;11.73;;;;;;;12.76;100.00;98914.31;6120927;23;20029;-86
2023/10/24 09:42:30;;;;;;;19.17;11.52;;;;;;;12.81;100.00;98914.63;6098132;23;20024;-85
2023/10/24 09:45:05;;;;;;;21.25;12.32;;;;;;;12.81;100.00;98908.47;6142626;23;20108;-86
2023/10/24 09:47:32;;;;;;;20.63;11.98;;;;;;;12.81;100.00;98903.16;6072207;23;20564;-85
2023/10/24 09:50:00;;;;;;;16.20;10.95;;;;;;;12.83;100.00;98914.47;6096652;23;20462;-85
2023/10/24 09:52:28;;;;;;;21.35;12.30;;;;;;;12.82;100.00;98908.31;6096985;23;20029;-85
2023/10/24 09:54:57;;;;;;;18.42;11.85;;;;;;;12.84;100.00;98907.31;6095435;23;20033;-84
2023/10/24 09:57:24;;;;;;;17.67;11.35;;;;;;;12.86;100.00;98908.78;6093776;23;20025;-84
2023/10/24 09:59:55;;;;;;;18.13;11.32;;;;;;;12.87;100.00;98912.28;6167686;23;20097;-84
2023/10/24 10:02:26;;;;;;;20.13;11.60;;;;;;;12.86;100.00;98907.97;6142709;23;20620;-84
2023/10/24 10:04:53;;;;;;;22.33;13.00;;;;;;;12.86;100.00;98908.78;6167009;23;20056;-86
2023/10/24 10:07:21;;;;;;;23.77;13.07;;;;;;;12.89;100.00;98915.63;6092653;23;20029;-86
2023/10/24 10:09:51;;;;;;;17.95;12.18;;;;;;;12.89;100.00;98920.94;6094559;23;20057;-84
2023/10/24 10:12:18;;;;;;;19.58;12.35;;;;;;;12.88;100.00;98914.78;6118705;23;20021;-85
2023/10/24 10:14:45;;;;;;;20.58;12.43;;;;;;;12.87;100.00;98913.09;6119279;23;20509;-84
2023/10/24 10:17:23;;;;;;;20.77;12.75;;;;;;;12.85;100.00;98917.81;6145684;23;20025;-85
2023/10/24 10:20:16;;;;;;;20.27;12.52;;;;;;;12.82;100.00;98916.31;6121021;23;20084;-84
2023/10/24 10:22:58;;;;;;;18.00;11.83;;;;;;;12.86;100.00;98905.31;6107101;23;20052;-83
2023/10/24 10:25:49;;;;;;;20.98;12.02;;;;;;;12.84;100.00;98907.31;6120663;23;20025;-84
2023/10/24 10:28:29;;;;;;;19.80;12.63;;;;;;;12.86;100.00;98910.63;6104962;23;20029;-84
2023/10/24 10:31:15;;;;;;;19.60;12.93;;;;;;;12.86;100.00;98902.66;6141390;23;20100;-87
2023/10/24 10:34:02;;;;;;;18.27;12.45;;;;;;;12.88;100.00;98895.31;6118130;23;20030;-85
2023/10/24 10:36:29;;;;;;;21.90;13.20;;;;;;;12.90;100.00;98903.94;6141665;23;20095;-85
2023/10/24 10:39:00;;;;;;;20.70;13.43;;;;;;;12.92;100.00;98902.75;6096062;23;20029;-85
2023/10/24 10:41:28;;;;;;;24.13;13.18;;;;;;;12.93;100.00;98890.28;6146396;23;20021;-85
2023/10/24 10:43:58;;;;;;;21.95;14.82;;;;;;;12.92;100.00;98878.78;6095347;23;20494;-85
2023/10/24 10:46:26;;;;;;;21.52;13.05;;;;;;;12.94;100.00;98875.94;6120731;23;20020;-86
2023/10/24 10:49:02;;;;;;;20.35;12.25;;;;;;;12.93;100.00;98879.63;6120813;23;20052;-85
2023/10/24 10:51:31;;;;;;;20.52;12.13;;;;;;;12.98;100.00;98877.28;6119810;23;20017;-85
2023/10/24 10:54:11;;;;;;;22.55;12.98;;;;;;;12.96;100.00;98871.28;6120129;23;20021;-85
2023/10/24 10:56:39;;;;;;;21.10;12.57;;;;;;;13.01;100.00;98860.94;6088450;23;20025;-84
2023/10/24 10:59:06;;;;;;;22.40;12.23;;;;;;;13.02;100.00;98866.06;6094580;23;20088;-87
2023/10/24 11:01:45;;;;;;;19.10;12.18;;;;;;;13.02;100.00;98852.75;6145123;23;20453;-85
2023/10/24 11:04:13;;;;;;;17.25;10.73;;;;;;;13.03;100.00;98851.75;6145839;23;20025;-86
2023/10/24 11:06:53;;;;;;;17.95;11.40;;;;;;;13.00;100.00;98848.59;6146000;23;20099;-86
2023/10/24 11:09:21;;;;;;;22.90;12.10;;;;;;;13.06;100.00;98841.75;6119421;23;20024;-86
2023/10/24 11:12:22;;;;;;;18.38;11.18;;;;;;;12.99;100.00;98837.13;6120313;23;20072;-86
2023/10/24 11:15:09;;;;;;;19.55;12.02;;;;;;;12.97;100.00;98841.78;6118232;23;20022;-86
2023/10/24 11:17:39;;;;;;;21.65;12.25;;;;;;;13.02;100.00;98841.25;6117810;23;20029;-86
2023/10/24 11:20:10;;;;;;;20.00;11.38;;;;;;;13.02;100.00;98839.41;6093718;23;20033;-87
2023/10/24 11:22:39;;;;;;;17.05;11.05;;;;;;;13.04;100.00;98847.25;6093954;23;20049;-83